Time;durP1;ratioP1;P1;durP2;ratioP2;P2;SDS_P1;SDS_P2;PMS_P1;PMS_P2;Temp;Humidity;BMP_temperature;BMP_pressure;BME280_temperature;BME280_humidity;BME280_pressure;Samples;Min_cycle;Max_cycle;Signal;HPM_P1;HPM_P2
2022/04/12 00:00:13;;;;;;;1.88;1.10;;;;;;;4.90;72.12;98596.28;4964349;28;20158;-74
2022/04/12 00:02:40;;;;;;;1.80;1.00;;;;;;;4.74;72.36;98582.56;4972698;28;20141;-75
2022/04/12 00:05:06;;;;;;;2.53;0.93;;;;;;;4.81;73.52;98580.84;4973536;28;20173;-75
2022/04/12 00:07:32;;;;;;;1.25;1.00;;;;;;;4.84;73.87;98573.16;4972666;28;20030;-75
2022/04/12 00:09:58;;;;;;;1.38;0.90;;;;;;;4.90;72.93;98551.75;4973019;28;20394;-75
2022/04/12 00:12:23;;;;;;;1.33;0.90;;;;;;;5.10;72.67;98550.06;4973600;28;20039;-75
2022/04/12 00:14:50;;;;;;;1.00;0.80;;;;;;;5.15;72.89;98552.63;4972913;28;20035;-75
2022/04/12 00:20:02;;;;;;;1.67;1.13;;;;;;;4.97;72.66;98536.34;4972804;28;20063;-75
2022/04/12 00:22:28;;;;;;;1.20;0.90;;;;;;;5.04;72.22;98561.19;4973648;28;20038;-75
2022/04/12 00:24:54;;;;;;;1.35;0.85;;;;;;;5.15;72.90;98562.91;4973901;28;20053;-75
2022/04/12 00:27:20;;;;;;;2.00;1.20;;;;;;;5.16;72.68;98564.63;4973699;28;20045;-75
2022/04/12 00:29:45;;;;;;;1.13;0.95;;;;;;;5.10;71.48;98556.06;4973208;28;20043;-75
2022/04/12 00:32:11;;;;;;;1.38;1.00;;;;;;;5.13;72.27;98539.75;4973499;28;20038;-75
2022/04/12 00:34:37;;;;;;;1.88;1.17;;;;;;;5.26;71.90;98533.75;4972059;28;20490;-75
2022/04/12 00:37:03;;;;;;;1.52;1.10;;;;;;;5.19;71.50;98538.91;4973421;28;20043;-74
2022/04/12 00:39:30;;;;;;;1.60;1.08;;;;;;;5.24;71.99;98534.63;4973164;28;20056;-75
2022/04/12 00:41:57;;;;;;;1.38;1.10;;;;;;;5.23;72.16;98535.50;4972246;28;20076;-75
2022/04/12 00:44:22;;;;;;;1.48;0.90;;;;;;;5.24;71.74;98529.47;4971817;28;20042;-75
2022/04/12 00:46:48;;;;;;;2.00;1.45;;;;;;;5.26;71.41;98546.59;4973204;28;20046;-74
2022/04/12 00:49:14;;;;;;;1.50;1.10;;;;;;;5.14;70.89;98527.78;4971894;28;20046;-74
2022/04/12 00:51:39;;;;;;;1.67;1.10;;;;;;;5.06;71.21;98536.34;4973506;28;20038;-75
2022/04/12 00:54:05;;;;;;;1.70;1.20;;;;;;;5.13;71.80;98544.03;4972082;28;20057;-75
2022/04/12 00:56:31;;;;;;;1.85;1.10;;;;;;;5.12;72.36;98542.34;4972070;28;20046;-75
2022/04/12 00:58:57;;;;;;;1.85;1.40;;;;;;;5.01;70.85;98550.91;4952743;28;20043;-74
2022/04/12 01:01:24;;;;;;;1.58;1.20;;;;;;;4.99;72.35;98550.03;4963026;28;20046;-74
2022/04/12 01:03:49;;;;;;;1.90;1.20;;;;;;;4.96;72.48;98552.63;4972843;28;20122;-74
2022/04/12 01:06:15;;;;;;;2.17;1.45;;;;;;;4.75;71.79;98543.16;4955822;28;20072;-75
2022/04/12 01:08:41;;;;;;;2.47;1.58;;;;;;;4.68;73.43;98526.06;4952714;28;20043;-75
2022/04/12 01:11:07;;;;;;;1.98;1.60;;;;;;;4.82;73.13;98549.19;4955415;28;20047;-74
2022/04/12 01:13:33;;;;;;;2.10;1.40;;;;;;;4.86;72.54;98545.78;4971805;28;20096;-75
2022/04/12 01:15:59;;;;;;;1.65;1.27;;;;;;;4.79;72.65;98554.31;4971410;28;20042;-75
2022/04/12 01:18:25;;;;;;;2.10;1.58;;;;;;;4.81;73.07;98527.78;4955710;28;20034;-74
2022/04/12 01:20:51;;;;;;;2.13;1.58;;;;;;;4.90;73.02;98547.44;4971239;28;20058;-75
2022/04/12 01:23:29;;;;;;;2.00;1.48;;;;;;;4.84;72.97;98539.75;4971713;28;20070;-74
2022/04/12 01:25:55;;;;;;;2.15;1.38;;;;;;;4.86;72.83;98530.34;4971129;28;20129;-74
2022/04/12 01:28:20;;;;;;;2.10;1.38;;;;;;;4.96;72.97;98529.50;4971716;28;20114;-74
2022/04/12 01:30:46;;;;;;;2.20;1.67;;;;;;;4.84;72.64;98517.47;4972689;28;20512;-74
2022/04/12 01:33:12;;;;;;;2.17;1.42;;;;;;;5.03;72.62;98536.31;4972527;28;20501;-74
2022/04/12 01:35:37;;;;;;;2.50;1.70;;;;;;;4.96;72.43;98529.50;4951993;29;20106;-75
2022/04/12 01:38:03;;;;;;;3.03;1.80;;;;;;;4.80;72.28;98514.91;4969422;28;20529;-74
2022/04/12 01:40:29;;;;;;;2.75;1.70;;;;;;;4.95;72.78;98514.06;4971909;28;20077;-74
2022/04/12 01:42:55;;;;;;;1.88;1.40;;;;;;;5.08;72.40;98523.47;4972725;28;20042;-74
2022/04/12 01:45:21;;;;;;;;;;;;;;;5.08;72.35;98521.75;4972824;28;20038;-74
2022/04/12 01:47:47;;;;;;;2.15;1.50;;;;;;;5.02;72.02;98521.78;4972735;28;19972;-74
2022/04/12 01:50:12;;;;;;;2.83;2.22;;;;;;;4.93;72.59;98524.34;4954985;28;20053;-74
2022/04/12 01:52:38;;;;;;;2.60;1.70;;;;;;;4.90;72.67;98532.03;4972755;28;20046;-74
2022/04/12 01:55:04;;;;;;;2.35;1.80;;;;;;;4.75;72.30;98527.75;4972003;28;20050;-74
2022/04/12 01:57:30;;;;;;;2.50;1.88;;;;;;;4.69;73.49;98542.31;4971206;28;20489;-74
2022/04/12 01:59:57;;;;;;;2.50;1.95;;;;;;;4.63;74.10;98544.84;4972044;28;20046;-74
2022/04/12 02:02:23;;;;;;;2.88;2.15;;;;;;;4.71;74.52;98556.00;4954934;28;20041;-74
2022/04/12 02:04:49;;;;;;;4.18;3.00;;;;;;;4.60;73.91;98561.13;4972370;28;20047;-74
2022/04/12 02:07:14;;;;;;;4.28;2.53;;;;;;;4.56;74.65;98556.84;4955272;28;20123;-74
2022/04/12 02:09:40;;;;;;;3.92;2.78;;;;;;;4.57;75.19;98556.84;4955414;28;20047;-74
2022/04/12 02:12:06;;;;;;;3.72;2.80;;;;;;;4.52;74.50;98550.84;4971108;28;20121;-74
2022/04/12 02:14:31;;;;;;;;;;;;;;;4.48;75.68;98563.66;4971864;28;20429;-74
2022/04/12 02:16:57;;;;;;;3.58;2.83;;;;;;;4.38;75.18;98546.53;4970944;28;19914;-74
2022/04/12 02:19:23;;;;;;;6.00;3.17;;;;;;;4.38;75.75;98529.41;4971781;28;20149;-74
2022/04/12 02:21:48;;;;;;;4.30;3.10;;;;;;;4.37;76.71;98543.09;4970996;28;20034;-74
2022/04/12 02:24:14;;;;;;;3.60;3.00;;;;;;;4.39;77.06;98533.69;4972210;28;20175;-74
2022/04/12 02:26:40;;;;;;;3.42;2.63;;;;;;;4.48;76.70;98518.28;4970932;28;20034;-74
2022/04/12 02:29:07;;;;;;;3.90;2.92;;;;;;;4.45;77.07;98497.75;4971973;28;20058;-74
2022/04/12 02:31:33;;;;;;;3.50;2.55;;;;;;;4.62;76.66;98500.34;4970556;28;20042;-74
2022/04/12 02:33:59;;;;;;;4.00;3.05;;;;;;;4.65;76.37;98487.50;4938722;28;20047;-75
2022/04/12 02:36:24;;;;;;;2.92;2.42;;;;;;;4.69;76.59;98485.81;4953084;28;20035;-74
2022/04/12 02:38:50;;;;;;;4.20;3.38;;;;;;;4.64;75.78;98520.91;4971878;28;20409;-75
2022/04/12 02:41:16;;;;;;;4.38;3.17;;;;;;;4.55;76.42;98514.91;4951408;29;20035;-75
2022/04/12 02:43:41;;;;;;;6.07;4.05;;;;;;;4.52;76.73;98525.16;4970609;28;20046;-75
2022/04/12 02:46:07;;;;;;;5.50;4.40;;;;;;;4.51;76.74;98527.72;4970316;28;20047;-75
2022/04/12 02:48:33;;;;;;;5.88;4.60;;;;;;;4.28;76.52;98509.69;4971842;28;20075;-74
2022/04/12 02:50:58;;;;;;;7.55;5.38;;;;;;;4.27;77.02;98508.00;4972669;28;20042;-74
2022/04/12 02:53:24;;;;;;;6.80;5.05;;;;;;;4.25;77.45;98494.28;4974211;28;20514;-75
2022/04/12 02:55:50;;;;;;;7.72;5.82;;;;;;;4.24;77.94;98488.28;4975170;28;20070;-74
2022/04/12 02:58:16;;;;;;;;;;;;;;;4.28;78.14;98478.91;4958488;28;20505;-74
2022/04/12 03:00:41;;;;;;;8.27;6.03;;;;;;;4.18;77.95;98469.47;4992787;28;19921;-74
2022/04/12 03:03:07;;;;;;;9.88;6.85;;;;;;;4.03;78.49;98463.44;4975132;28;20466;-73
2022/04/12 03:05:34;;;;;;;10.23;7.55;;;;;;;3.96;78.81;98445.47;4975247;28;20121;-74
2022/04/12 03:08:00;;;;;;;9.10;6.05;;;;;;;4.03;79.41;98448.06;4974134;28;20532;-74
2022/04/12 03:10:25;;;;;;;13.07;6.82;;;;;;;4.15;79.52;98443.78;4973964;28;20030;-73
2022/04/12 03:12:51;;;;;;;8.27;5.57;;;;;;;4.23;79.94;98434.41;4954719;29;20051;-73
2022/04/12 03:15:17;;;;;;;10.80;7.03;;;;;;;4.23;79.49;98422.41;4969385;28;20794;-74
2022/04/12 03:17:43;;;;;;;9.40;5.53;;;;;;;4.16;78.98;98407.00;4974878;28;20043;-74
2022/04/12 03:20:09;;;;;;;7.47;5.88;;;;;;;4.12;79.19;98400.13;4974955;28;20152;-74
2022/04/12 03:22:35;;;;;;;6.80;4.93;;;;;;;4.23;79.02;98419.00;4973917;28;20042;-74
2022/04/12 03:25:01;;;;;;;6.03;4.50;;;;;;;4.09;78.76;98395.88;4975206;28;20046;-74
2022/04/12 03:27:27;;;;;;;5.47;3.65;;;;;;;4.14;79.83;98401.03;4974966;28;20070;-75
2022/04/12 03:29:54;;;;;;;5.63;4.03;;;;;;;4.26;79.07;98425.00;4957895;28;20066;-74
2022/04/12 03:32:20;;;;;;;6.63;4.18;;;;;;;4.26;78.61;98424.13;4973459;28;20053;-75
2022/04/12 03:34:46;;;;;;;6.22;4.35;;;;;;;4.49;78.33;98462.66;4973447;28;20042;-75
2022/04/12 03:37:13;;;;;;;6.97;4.43;;;;;;;4.33;77.41;98462.63;4957658;28;20092;-74
2022/04/12 03:39:38;;;;;;;4.82;3.75;;;;;;;4.23;77.85;98471.19;4974597;28;20038;-72
2022/04/12 03:42:05;;;;;;;7.50;5.22;;;;;;;4.21;78.64;98456.63;4974823;28;20043;-74
2022/04/12 03:44:31;;;;;;;6.55;4.95;;;;;;;4.23;78.52;98458.34;4957442;28;20035;-75
2022/04/12 03:46:56;;;;;;;;;;;;;;;4.13;77.55;98453.22;4973939;28;20039;-75
2022/04/12 03:49:22;;;;;;;7.97;5.40;;;;;;;4.13;78.57;98448.06;4974617;28;19938;-75
2022/04/12 03:51:48;;;;;;;10.90;7.28;;;;;;;4.03;78.39;98447.16;4973472;28;20490;-75
2022/04/12 03:54:13;;;;;;;11.63;7.07;;;;;;;3.90;78.89;98435.19;4973317;28;20074;-74
2022/04/12 03:56:39;;;;;;;10.25;6.90;;;;;;;4.02;79.71;98443.75;4974570;28;20050;-74
2022/04/12 03:59:04;;;;;;;8.50;6.32;;;;;;;4.05;79.84;98448.91;4974758;28;20041;-75
2022/04/12 04:01:30;;;;;;;10.20;6.90;;;;;;;4.00;80.09;98437.78;4956903;28;20486;-75
2022/04/12 04:03:56;;;;;;;7.97;5.90;;;;;;;3.94;79.56;98463.44;4972628;28;20038;-75
2022/04/12 04:06:22;;;;;;;9.45;6.07;;;;;;;4.03;80.32;98463.44;4974562;28;20485;-74
2022/04/12 04:08:47;;;;;;;12.82;7.47;;;;;;;4.03;80.84;98472.81;4974205;28;20062;-75
2022/04/12 04:11:13;;;;;;;11.60;7.53;;;;;;;4.00;80.64;98471.13;4975547;28;20053;-76
2022/04/12 04:13:39;;;;;;;13.50;7.47;;;;;;;4.08;81.08;98456.63;4973125;28;20581;-74
2022/04/12 04:16:05;;;;;;;13.40;8.73;;;;;;;4.13;81.01;98468.59;4972831;28;20066;-75
2022/04/12 04:18:31;;;;;;;;;;;;;;;4.07;81.00;98482.25;4973889;28;20030;-75
2022/04/12 04:20:57;;;;;;;11.52;7.80;;;;;;;4.10;81.13;98491.69;4973291;28;20300;-74
2022/04/12 04:23:22;;;;;;;13.63;7.95;;;;;;;4.17;81.25;98485.69;4974575;28;20051;-76
2022/04/12 04:25:48;;;;;;;14.88;8.93;;;;;;;4.14;81.05;98486.56;4978899;28;20038;-75
2022/04/12 04:28:14;;;;;;;13.15;8.82;;;;;;;4.11;80.95;98480.56;4983032;28;20033;-75
2022/04/12 04:30:44;;;;;;;15.18;8.93;;;;;;;4.14;81.50;98490.84;4984998;28;20501;-76
2022/04/12 04:33:10;;;;;;;13.93;9.38;;;;;;;4.13;81.06;98500.25;4973873;28;20502;-74
2022/04/12 04:35:36;;;;;;;13.85;9.35;;;;;;;4.10;81.18;98495.09;4973589;28;20041;-74
2022/04/12 04:38:02;;;;;;;12.18;9.68;;;;;;;4.01;81.94;98498.50;4973913;28;20046;-74
2022/04/12 04:40:27;;;;;;;14.93;9.13;;;;;;;4.02;81.76;98484.81;4972813;28;20051;-75
2022/04/12 04:42:53;;;;;;;16.42;10.50;;;;;;;4.11;81.97;98501.94;4973706;28;20134;-75
2022/04/12 04:45:19;;;;;;;14.82;9.55;;;;;;;3.96;82.11;98471.97;4972261;28;20038;-75
2022/04/12 04:47:55;;;;;;;16.45;10.88;;;;;;;4.07;82.29;98516.47;4973498;28;20042;-76
2022/04/12 04:50:21;;;;;;;17.35;10.57;;;;;;;4.04;82.27;98515.63;4972269;28;20038;-75
2022/04/12 04:52:47;;;;;;;16.08;10.63;;;;;;;3.86;82.51;98483.06;4972803;28;20061;-74
2022/04/12 04:55:13;;;;;;;17.73;11.05;;;;;;;4.17;82.57;98511.38;4973288;28;20284;-74
2022/04/12 04:57:43;;;;;;;16.83;10.38;;;;;;;4.20;83.20;98526.78;4956027;28;20050;-73
2022/04/12 05:00:22;;;;;;;17.15;10.25;;;;;;;4.15;82.88;98502.81;4972240;28;20048;-78
2022/04/12 05:02:49;;;;;;;16.13;10.60;;;;;;;4.25;82.40;98504.56;4972605;28;20406;-75
2022/04/12 05:05:15;;;;;;;13.95;9.60;;;;;;;4.48;81.96;98513.16;4972131;28;20030;-74
2022/04/12 05:07:43;;;;;;;12.48;9.23;;;;;;;4.57;82.30;98518.31;4957065;28;20552;-76
2022/04/12 05:10:11;;;;;;;15.98;9.60;;;;;;;4.37;81.32;98486.63;4966200;28;20050;-75
2022/04/12 05:12:37;;;;;;;15.55;10.48;;;;;;;4.45;80.65;98513.19;4954811;28;20043;-75
2022/04/12 05:15:03;;;;;;;12.55;8.52;;;;;;;4.48;81.67;98523.44;4964433;28;20238;-75
2022/04/12 05:17:29;;;;;;;;;;;;;;;4.66;81.45;98529.47;4972330;28;20049;-74
2022/04/12 05:19:56;;;;;;;12.25;8.00;;;;;;;4.54;80.41;98528.59;4972872;28;20308;-76
2022/04/12 05:22:22;;;;;;;13.65;8.70;;;;;;;4.48;81.24;98526.00;4972030;28;20069;-75
2022/04/12 05:24:48;;;;;;;11.35;8.38;;;;;;;4.48;81.16;98525.16;4973450;28;20121;-75
2022/04/12 05:27:15;;;;;;;13.30;9.38;;;;;;;4.43;81.25;98524.28;4971670;28;20077;-79
2022/04/12 05:29:41;;;;;;;12.02;7.97;;;;;;;4.46;81.48;98524.28;4953043;29;20054;-75
2022/04/12 05:32:09;;;;;;;11.02;7.50;;;;;;;4.49;81.70;98532.88;4973167;28;20077;-76
2022/04/12 05:34:36;;;;;;;15.15;8.52;;;;;;;4.43;81.51;98514.88;4972099;28;20065;-76
2022/04/12 05:37:03;;;;;;;13.25;8.20;;;;;;;4.46;81.73;98524.28;4943927;29;20035;-76
2022/04/12 05:39:29;;;;;;;9.90;7.10;;;;;;;4.54;81.85;98527.75;4969875;28;20038;-76
2022/04/12 05:41:55;;;;;;;13.55;9.13;;;;;;;4.50;81.50;98515.75;4973250;28;20039;-79
2022/04/12 05:44:22;;;;;;;10.77;7.07;;;;;;;4.55;81.74;98517.47;4953739;28;20046;-78
2022/04/12 05:46:47;;;;;;;10.25;6.95;;;;;;;4.50;81.25;98478.09;4971791;28;20042;-75
2022/04/12 05:49:13;;;;;;;9.68;6.95;;;;;;;4.74;81.41;98496.94;4971719;28;20042;-78
2022/04/12 05:51:39;;;;;;;9.13;6.78;;;;;;;4.73;81.19;98502.94;4971509;28;20043;-74
2022/04/12 05:54:04;;;;;;;9.63;6.65;;;;;;;4.70;80.79;98518.34;4971573;28;20047;-77
2022/04/12 05:56:30;;;;;;;9.45;7.40;;;;;;;4.61;79.88;98508.91;4972725;28;20485;-76
2022/04/12 05:58:55;;;;;;;10.95;7.20;;;;;;;4.51;80.59;98523.44;4972976;28;20039;-76
2022/04/12 06:01:21;;;;;;;10.63;7.57;;;;;;;4.50;81.18;98510.63;4972768;28;20101;-76
2022/04/12 06:03:47;;;;;;;10.18;7.43;;;;;;;4.44;81.52;98492.59;4972710;28;20531;-78
2022/04/12 06:06:14;;;;;;;9.45;6.82;;;;;;;4.45;82.15;98497.75;4937165;29;20178;-79
2022/04/12 06:08:40;;;;;;;10.45;7.20;;;;;;;4.56;81.82;98521.75;4953090;28;20031;-76
2022/04/12 06:11:06;;;;;;;9.35;7.13;;;;;;;4.34;82.09;98478.91;4963990;28;20053;-76
2022/04/12 06:13:31;;;;;;;9.70;6.57;;;;;;;4.67;81.97;98510.63;4968217;28;20035;-75
2022/04/12 06:15:58;;;;;;;10.45;7.45;;;;;;;4.74;82.51;98512.34;4971929;28;20450;-75
2022/04/12 06:18:24;;;;;;;10.95;7.05;;;;;;;4.77;82.02;98500.38;4936550;29;20406;-76
2022/04/12 06:20:50;;;;;;;9.32;6.20;;;;;;;5.12;81.06;98516.63;4971213;28;20059;-76
2022/04/12 06:23:17;;;;;;;14.95;9.55;;;;;;;5.21;80.76;98509.75;4972917;28;20046;-76
2022/04/12 06:25:43;;;;;;;10.00;6.28;;;;;;;5.13;79.91;98492.63;4955916;28;20066;-77
2022/04/12 06:28:09;;;;;;;10.10;6.78;;;;;;;5.33;79.70;98508.91;4961630;28;20038;-76
2022/04/12 06:30:35;;;;;;;8.07;6.05;;;;;;;5.38;79.18;98514.88;4976554;28;20046;-77
2022/04/12 06:33:00;;;;;;;10.15;6.90;;;;;;;5.33;79.04;98516.63;4975305;28;20042;-77
2022/04/12 06:35:26;;;;;;;9.13;6.90;;;;;;;5.36;78.74;98506.34;4962227;28;20106;-77
2022/04/12 06:37:53;;;;;;;9.45;6.45;;;;;;;5.50;79.18;98525.16;4941646;28;20039;-76
2022/04/12 06:40:20;;;;;;;8.52;6.43;;;;;;;5.49;78.55;98508.00;4976525;28;20101;-76
2022/04/12 06:42:46;;;;;;;9.80;6.07;;;;;;;5.55;78.54;98520.00;4975257;28;20071;-76
2022/04/12 06:45:12;;;;;;;10.35;6.63;;;;;;;5.51;78.16;98536.31;4975389;28;20042;-74
2022/04/12 06:47:38;;;;;;;9.88;6.13;;;;;;;5.61;77.39;98536.28;4976166;28;20512;-77
2022/04/12 06:50:05;;;;;;;8.20;5.75;;;;;;;5.59;77.60;98529.44;4974723;28;20043;-76
2022/04/12 06:52:30;;;;;;;9.75;6.50;;;;;;;5.54;77.20;98524.31;4976477;28;20057;-76
2022/04/12 06:54:56;;;;;;;9.90;6.82;;;;;;;5.57;76.84;98538.84;4976094;28;20047;-76
2022/04/12 06:57:22;;;;;;;11.02;6.80;;;;;;;5.52;77.19;98526.00;4975227;28;20050;-78
2022/04/12 06:59:48;;;;;;;9.55;5.85;;;;;;;5.47;77.26;98539.75;4976370;28;20118;-77
2022/04/12 07:02:13;;;;;;;9.95;7.05;;;;;;;5.47;76.12;98560.31;4974853;28;20054;-76
2022/04/12 07:04:39;;;;;;;10.40;7.68;;;;;;;5.40;77.49;98548.31;4975176;28;20158;-78
2022/04/12 07:07:05;;;;;;;10.00;6.95;;;;;;;5.21;77.82;98520.03;4975908;28;20046;-77
2022/04/12 07:09:31;;;;;;;10.25;7.20;;;;;;;5.40;78.24;98538.88;4944411;29;20053;-76
2022/04/12 07:11:57;;;;;;;9.75;7.75;;;;;;;5.44;78.28;98532.88;4974414;28;20513;-76
2022/04/12 07:14:23;;;;;;;15.10;8.02;;;;;;;5.37;78.64;98502.91;4974574;28;20038;-74
2022/04/12 07:16:49;;;;;;;15.98;10.75;;;;;;;5.43;79.25;98486.59;4974962;28;20549;-75
2022/04/12 07:19:15;;;;;;;14.57;9.88;;;;;;;5.78;79.22;98514.81;4958355;28;20146;-78
2022/04/12 07:21:41;;;;;;;;;;;;;;;6.06;78.33;98521.56;4959146;28;20034;-76
2022/04/12 07:24:07;;;;;;;13.45;8.02;;;;;;;6.02;77.57;98525.03;4975620;28;19925;-76
2022/04/12 07:26:33;;;;;;;10.68;7.80;;;;;;;5.72;76.81;98499.34;4958274;28;20046;-76
2022/04/12 07:28:59;;;;;;;12.80;8.40;;;;;;;5.77;77.65;98519.09;4975305;28;20054;-76
2022/04/12 07:31:26;;;;;;;15.50;9.25;;;;;;;5.56;77.98;98501.13;4975852;28;20042;-76
2022/04/12 07:33:52;;;;;;;15.10;10.13;;;;;;;5.74;78.48;98507.94;4958528;28;20039;-76
2022/04/12 07:36:18;;;;;;;14.75;9.18;;;;;;;5.89;78.85;98495.00;4974829;28;20591;-76
2022/04/12 07:38:44;;;;;;;12.27;8.73;;;;;;;6.07;77.44;98484.66;4957216;28;20055;-76
2022/04/12 07:41:10;;;;;;;14.88;9.13;;;;;;;5.84;77.44;98450.44;4975482;28;20030;-77
2022/04/12 07:43:37;;;;;;;12.07;8.20;;;;;;;6.23;77.20;98485.47;4975216;28;20039;-78
2022/04/12 07:46:03;;;;;;;22.42;11.60;;;;;;;6.14;76.32;98489.78;4957907;28;20026;-76
2022/04/12 07:48:29;;;;;;;12.93;9.25;;;;;;;6.19;77.02;98491.47;4975123;28;20058;-76
2022/04/12 07:50:54;;;;;;;13.95;8.80;;;;;;;6.29;76.90;98497.44;4975116;28;20425;-77
2022/04/12 07:53:20;;;;;;;17.02;9.52;;;;;;;6.17;77.16;98482.03;4941728;28;20081;-76
2022/04/12 07:55:46;;;;;;;14.68;9.40;;;;;;;6.32;76.86;98508.59;4973959;28;20035;-76
2022/04/12 07:58:11;;;;;;;14.88;9.45;;;;;;;6.40;76.90;98508.53;4973851;28;20045;-77
2022/04/12 08:00:37;;;;;;;13.18;8.82;;;;;;;6.32;76.00;98515.44;4973953;28;20046;-76
2022/04/12 08:03:03;;;;;;;14.82;8.55;;;;;;;6.42;76.35;98514.53;4975251;28;20095;-77
2022/04/12 08:05:28;;;;;;;14.82;9.35;;;;;;;6.35;75.39;98502.53;4974566;28;20117;-77
2022/04/12 08:07:54;;;;;;;15.20;10.18;;;;;;;6.29;75.54;98518.03;4973616;28;20053;-76
2022/04/12 08:10:20;;;;;;;14.75;9.10;;;;;;;6.38;76.13;98525.72;4941867;28;20076;-78
2022/04/12 08:12:46;;;;;;;15.23;9.63;;;;;;;6.19;76.34;98490.63;4970345;28;20130;-78
2022/04/12 08:15:12;;;;;;;;;;;;;;;6.58;76.00;98526.44;4967528;28;20078;-76
2022/04/12 08:17:38;;;;;;;15.07;8.88;;;;;;;6.54;75.33;98534.19;5001075;28;19918;-75
2022/04/12 08:20:05;;;;;;;14.07;8.98;;;;;;;6.37;75.85;98508.56;4948898;28;20101;-76
2022/04/12 08:22:34;;;;;;;16.85;10.75;;;;;;;6.55;76.50;98523.91;4958216;28;20052;-77
2022/04/12 08:24:59;;;;;;;16.33;11.30;;;;;;;6.60;76.36;98535.03;4957468;28;20049;-77
2022/04/12 08:27:26;;;;;;;15.77;11.52;;;;;;;6.60;75.61;98535.03;4974614;28;20031;-78
2022/04/12 08:29:51;;;;;;;14.65;10.13;;;;;;;6.67;76.12;98524.69;4957156;28;20046;-76
2022/04/12 08:32:17;;;;;;;14.95;10.43;;;;;;;6.72;76.58;98528.06;4973075;28;20493;-77
2022/04/12 08:34:44;;;;;;;14.88;10.40;;;;;;;6.71;76.06;98529.81;4957253;28;20074;-77
2022/04/12 08:37:10;;;;;;;17.50;11.98;;;;;;;6.67;76.09;98530.69;4954200;29;20050;-75
2022/04/12 08:39:35;;;;;;;;;;;;;;;6.68;75.39;98537.53;4957611;28;20042;-77
2022/04/12 08:42:03;;;;;;;20.63;15.35;;;;;;;6.63;75.13;98540.16;4974442;28;20005;-76
2022/04/12 08:44:29;;;;;;;21.55;14.15;;;;;;;6.74;75.56;98541.81;4973165;28;20031;-76
2022/04/12 08:46:55;;;;;;;19.90;13.75;;;;;;;6.78;75.27;98520.28;4973179;28;20029;-76
2022/04/12 08:49:24;;;;;;;20.65;13.63;;;;;;;6.78;75.07;98518.59;4972673;28;20046;-79
2022/04/12 08:51:50;;;;;;;18.92;13.35;;;;;;;6.71;75.28;98519.50;4938087;28;20582;-77
2022/04/12 08:54:16;;;;;;;18.95;13.25;;;;;;;6.69;75.94;98543.53;4965755;28;20051;-76
2022/04/12 08:56:43;;;;;;;;;;;;;;;6.62;76.30;98542.75;4974540;28;20445;-76
2022/04/12 08:59:09;;;;;;;18.05;12.95;;;;;;;6.53;76.06;98533.34;4978367;28;19918;-77
2022/04/12 09:01:34;;;;;;;16.83;12.73;;;;;;;6.62;77.16;98532.44;4969604;28;20047;-76
2022/04/12 09:04:00;;;;;;;17.45;13.02;;;;;;;6.49;76.89;98531.66;4972528;28;20457;-77
2022/04/12 09:06:26;;;;;;;19.40;12.73;;;;;;;6.51;78.08;98535.09;4972862;28;20039;-78
2022/04/12 09:08:52;;;;;;;18.52;12.55;;;;;;;6.57;78.35;98529.88;4956716;28;20498;-76
2022/04/12 09:11:17;;;;;;;17.38;11.32;;;;;;;6.74;77.59;98534.09;4972644;28;20068;-76
2022/04/12 09:14:01;;;;;;;18.55;11.73;;;;;;;6.89;76.72;98536.56;4973043;28;20494;-77
2022/04/12 09:16:28;;;;;;;17.27;10.88;;;;;;;6.99;76.42;98542.50;4973651;28;20038;-76
2022/04/12 09:18:54;;;;;;;16.38;10.55;;;;;;;6.90;76.17;98533.09;4973300;28;20495;-76
2022/04/12 09:21:22;;;;;;;17.05;11.73;;;;;;;6.99;75.50;98547.66;4952725;29;20039;-76
2022/04/12 09:23:51;;;;;;;14.93;10.90;;;;;;;6.99;75.58;98551.06;4952864;28;20090;-77
2022/04/12 09:26:30;;;;;;;17.63;11.25;;;;;;;6.86;76.24;98526.25;4972431;28;20154;-76
2022/04/12 09:28:57;;;;;;;18.35;11.82;;;;;;;6.77;76.16;98539.22;4956036;28;20035;-76
2022/04/12 09:31:23;;;;;;;18.63;12.00;;;;;;;6.86;77.23;98550.31;4953063;29;20102;-76
2022/04/12 09:33:49;;;;;;;19.58;12.73;;;;;;;6.77;76.54;98537.47;4965973;28;20042;-77
2022/04/12 09:36:15;;;;;;;16.92;11.05;;;;;;;6.88;76.93;98546.00;4955680;28;20042;-76
2022/04/12 09:38:42;;;;;;;16.92;11.45;;;;;;;6.88;76.49;98533.13;4971778;28;20047;-76
2022/04/12 09:41:16;;;;;;;17.02;11.13;;;;;;;7.08;76.24;98545.84;4951600;28;20103;-77
2022/04/12 09:44:08;;;;;;;21.38;13.65;;;;;;;6.99;75.78;98545.91;4973333;28;20162;-77
2022/04/12 09:46:42;;;;;;;19.42;13.77;;;;;;;6.98;75.97;98515.00;4941561;28;20049;-76
2022/04/12 09:49:07;;;;;;;16.98;11.50;;;;;;;7.00;75.32;98528.72;4971906;28;20046;-76
2022/04/12 09:51:36;;;;;;;17.13;11.25;;;;;;;7.06;75.85;98534.72;4972909;28;20451;-76
2022/04/12 09:54:03;;;;;;;17.60;11.75;;;;;;;7.00;76.39;98528.72;4956479;28;20133;-77
2022/04/12 09:56:29;;;;;;;17.02;11.40;;;;;;;7.14;76.41;98543.22;4971951;28;20413;-76
2022/04/12 09:58:56;;;;;;;22.98;11.25;;;;;;;7.21;76.41;98541.44;4972792;28;20042;-76
2022/04/12 10:01:22;;;;;;;16.95;10.55;;;;;;;7.03;76.82;98501.19;4974366;28;20053;-75
2022/04/12 10:03:52;;;;;;;16.40;9.93;;;;;;;7.28;76.14;98539.66;4959551;28;20521;-76
2022/04/12 10:06:20;;;;;;;18.42;11.45;;;;;;;7.28;75.28;98532.78;4976089;28;20112;-76
2022/04/12 10:08:51;;;;;;;15.25;10.38;;;;;;;7.43;75.05;98539.53;4960065;28;20158;-77
2022/04/12 10:11:17;;;;;;;20.08;11.98;;;;;;;7.35;74.98;98521.53;4976099;28;20050;-77
2022/04/12 10:13:43;;;;;;;14.95;10.32;;;;;;;7.48;74.68;98511.97;4956657;28;20091;-76
2022/04/12 10:16:09;;;;;;;19.70;11.68;;;;;;;7.38;73.98;98500.03;4940630;29;20039;-76
2022/04/12 10:18:35;;;;;;;16.42;11.57;;;;;;;7.49;74.49;98526.56;4970094;28;20034;-77
2022/04/12 10:21:01;;;;;;;16.58;11.40;;;;;;;7.49;74.91;98533.47;4959404;28;20070;-75
2022/04/12 10:23:26;;;;;;;15.75;10.05;;;;;;;7.62;74.41;98540.22;4940096;29;20061;-76
2022/04/12 10:25:55;;;;;;;;;;;;;;;7.56;74.43;98546.28;4972724;28;20058;-75
2022/04/12 10:28:22;;;;;;;18.15;11.55;;;;;;;7.26;74.29;98531.09;4976721;28;19918;-76
2022/04/12 10:30:48;;;;;;;17.65;11.80;;;;;;;7.44;74.70;98545.56;4975424;28;20081;-77
2022/04/12 10:33:24;;;;;;;19.27;12.30;;;;;;;7.50;74.65;98546.34;4975347;28;20126;-77
2022/04/12 10:35:51;;;;;;;15.82;11.00;;;;;;;7.60;74.71;98545.38;4957587;28;20047;-78
2022/04/12 10:38:18;;;;;;;16.88;10.63;;;;;;;7.72;74.38;98546.97;4976537;28;20092;-74
2022/04/12 10:40:44;;;;;;;16.05;10.93;;;;;;;7.86;73.67;98549.41;4976293;28;20049;-77
2022/04/12 10:43:10;;;;;;;16.67;10.75;;;;;;;7.84;73.67;98552.03;4943079;28;20027;-78
2022/04/12 10:45:39;;;;;;;20.58;12.30;;;;;;;7.83;73.21;98552.03;4975344;28;20125;-77
2022/04/12 10:48:05;;;;;;;16.35;11.15;;;;;;;7.82;73.32;98563.22;4975029;28;20038;-76
2022/04/12 10:50:41;;;;;;;17.77;12.00;;;;;;;7.74;73.44;98554.69;4976048;28;20050;-76
2022/04/12 10:53:07;;;;;;;18.10;12.13;;;;;;;7.76;73.60;98564.16;4976024;28;20046;-76
2022/04/12 10:55:37;;;;;;;20.10;12.45;;;;;;;7.68;73.66;98554.78;4974822;28;20486;-77
2022/04/12 10:58:13;;;;;;;16.30;11.70;;;;;;;7.71;73.57;98565.94;4974978;28;20061;-76
2022/04/12 11:00:42;;;;;;;21.58;14.13;;;;;;;7.63;74.09;98554.81;4974901;28;20045;-75
2022/04/12 11:03:08;;;;;;;18.80;12.45;;;;;;;7.58;74.04;98539.38;4974783;28;20116;-75
2022/04/12 11:05:38;;;;;;;19.25;13.23;;;;;;;7.61;74.66;98547.09;4955549;29;20039;-77
2022/04/12 11:08:08;;;;;;;19.67;13.02;;;;;;;7.59;74.33;98523.03;4966274;28;20105;-76
2022/04/12 11:10:34;;;;;;;19.20;12.73;;;;;;;7.78;74.12;98541.75;4958699;28;20038;-76
2022/04/12 11:13:10;;;;;;;19.10;13.02;;;;;;;7.70;73.83;98527.19;4975591;28;20042;-76
2022/04/12 11:15:40;;;;;;;23.08;14.07;;;;;;;7.74;73.62;98536.63;4957491;28;20098;-78
2022/04/12 11:18:12;;;;;;;24.52;14.38;;;;;;;7.80;73.97;98534.00;4958734;28;20042;-77
2022/04/12 11:20:48;;;;;;;19.45;12.80;;;;;;;7.85;73.89;98535.66;4976017;28;20062;-77
2022/04/12 11:23:14;;;;;;;20.30;13.75;;;;;;;7.79;73.43;98511.63;4958641;28;20034;-77
2022/04/12 11:25:50;;;;;;;22.20;14.32;;;;;;;7.90;73.55;98520.09;4913256;28;20410;-77
2022/04/12 11:28:23;;;;;;;20.70;12.70;;;;;;;7.98;73.35;98523.47;4958442;28;20081;-77
2022/04/12 11:30:56;;;;;;;22.58;15.13;;;;;;;7.85;73.68;98520.16;4942236;28;20039;-77
2022/04/12 11:33:26;;;;;;;19.85;13.05;;;;;;;8.07;73.43;98536.25;4974101;28;20046;-77
2022/04/12 11:35:52;;;;;;;22.60;15.15;;;;;;;8.00;72.93;98532.03;4956046;28;20085;-76